sensor_id;sensor_type;location;lat;lon;timestamp;P1;durP1;ratioP1;P2;durP2;ratioP2
74080;SDS011;62438;52.228;6.864;2022-09-21T00:01:29;10.35;;;4.57;;
74080;SDS011;62438;52.228;6.864;2022-09-21T00:03:34;11.18;;;4.57;;
74080;SDS011;62438;52.228;6.864;2022-09-21T00:05:35;12.85;;;5.15;;
74080;SDS011;62438;52.228;6.864;2022-09-21T00:07:35;15.63;;;5.03;;
74080;SDS011;62438;52.228;6.864;2022-09-21T00:09:36;10.60;;;4.70;;
74080;SDS011;62438;52.228;6.864;2022-09-21T00:11:39;10.13;;;4.57;;
74080;SDS011;62438;52.228;6.864;2022-09-21T00:13:40;8.88;;;4.07;;
74080;SDS011;62438;52.228;6.864;2022-09-21T00:15:41;11.57;;;4.32;;
74080;SDS011;62438;52.228;6.864;2022-09-21T00:17:41;14.43;;;4.57;;
74080;SDS011;62438;52.228;6.864;2022-09-21T00:19:42;9.98;;;4.28;;
74080;SDS011;62438;52.228;6.864;2022-09-21T00:21:43;10.98;;;4.63;;
74080;SDS011;62438;52.228;6.864;2022-09-21T00:23:44;14.45;;;4.88;;
74080;SDS011;62438;52.228;6.864;2022-09-21T00:25:44;11.13;;;4.80;;
74080;SDS011;62438;52.228;6.864;2022-09-21T00:27:45;11.68;;;4.45;;
74080;SDS011;62438;52.228;6.864;2022-09-21T00:29:50;12.15;;;5.40;;
74080;SDS011;62438;52.228;6.864;2022-09-21T00:31:50;10.52;;;4.47;;
74080;SDS011;62438;52.228;6.864;2022-09-21T00:33:51;16.05;;;5.10;;
74080;SDS011;62438;52.228;6.864;2022-09-21T00:35:52;12.13;;;4.10;;
74080;SDS011;62438;52.228;6.864;2022-09-21T00:37:52;12.30;;;4.80;;
74080;SDS011;62438;52.228;6.864;2022-09-21T00:39:53;10.63;;;4.55;;
74080;SDS011;62438;52.228;6.864;2022-09-21T00:41:54;12.10;;;5.10;;
74080;SDS011;62438;52.228;6.864;2022-09-21T00:46:11;11.45;;;5.32;;
74080;SDS011;62438;52.228;6.864;2022-09-21T00:48:16;14.32;;;5.47;;
74080;SDS011;62438;52.228;6.864;2022-09-21T00:50:19;12.68;;;5.15;;
74080;SDS011;62438;52.228;6.864;2022-09-21T00:52:21;12.82;;;5.03;;
74080;SDS011;62438;52.228;6.864;2022-09-21T00:54:26;12.98;;;5.10;;
74080;SDS011;62438;52.228;6.864;2022-09-21T00:56:32;11.13;;;5.57;;
74080;SDS011;62438;52.228;6.864;2022-09-21T01:00:42;16.83;;;5.20;;
74080;SDS011;62438;52.228;6.864;2022-09-21T01:02:42;14.27;;;5.25;;
74080;SDS011;62438;52.228;6.864;2022-09-21T01:04:44;12.82;;;5.20;;
74080;SDS011;62438;52.228;6.864;2022-09-21T01:06:46;13.77;;;5.00;;
74080;SDS011;62438;52.228;6.864;2022-09-21T01:08:49;19.67;;;5.10;;
74080;SDS011;62438;52.228;6.864;2022-09-21T01:13:13;11.45;;;5.15;;
74080;SDS011;62438;52.228;6.864;2022-09-21T01:15:39;13.07;;;5.65;;
74080;SDS011;62438;52.228;6.864;2022-09-21T01:25:28;14.93;;;5.03;;
74080;SDS011;62438;52.228;6.864;2022-09-21T01:29:51;11.98;;;5.28;;
74080;SDS011;62438;52.228;6.864;2022-09-21T01:32:05;11.73;;;4.65;;
74080;SDS011;62438;52.228;6.864;2022-09-21T01:34:21;12.02;;;5.05;;
74080;SDS011;62438;52.228;6.864;2022-09-21T01:36:43;15.23;;;5.45;;
74080;SDS011;62438;52.228;6.864;2022-09-21T01:38:48;14.32;;;5.28;;
74080;SDS011;62438;52.228;6.864;2022-09-21T01:40:52;13.13;;;5.88;;
74080;SDS011;62438;52.228;6.864;2022-09-21T01:42:57;14.27;;;5.18;;
74080;SDS011;62438;52.228;6.864;2022-09-21T01:45:00;15.55;;;5.45;;
74080;SDS011;62438;52.228;6.864;2022-09-21T01:47:03;14.02;;;5.03;;
74080;SDS011;62438;52.228;6.864;2022-09-21T01:49:12;14.70;;;5.63;;
74080;SDS011;62438;52.228;6.864;2022-09-21T01:51:15;14.10;;;5.38;;
74080;SDS011;62438;52.228;6.864;2022-09-21T01:53:31;14.57;;;5.80;;
74080;SDS011;62438;52.228;6.864;2022-09-21T01:55:35;11.77;;;5.30;;
74080;SDS011;62438;52.228;6.864;2022-09-21T01:57:43;13.93;;;4.93;;
74080;SDS011;62438;52.228;6.864;2022-09-21T01:59:57;11.30;;;4.93;;
74080;SDS011;62438;52.228;6.864;2022-09-21T02:02:02;13.18;;;4.95;;
74080;SDS011;62438;52.228;6.864;2022-09-21T02:04:11;13.75;;;5.00;;
74080;SDS011;62438;52.228;6.864;2022-09-21T02:06:12;11.90;;;5.25;;
74080;SDS011;62438;52.228;6.864;2022-09-21T02:08:15;12.60;;;4.55;;
74080;SDS011;62438;52.228;6.864;2022-09-21T02:10:21;13.25;;;4.90;;
74080;SDS011;62438;52.228;6.864;2022-09-21T02:12:28;10.75;;;4.45;;
74080;SDS011;62438;52.228;6.864;2022-09-21T02:14:32;13.25;;;5.22;;
74080;SDS011;62438;52.228;6.864;2022-09-21T02:16:39;11.45;;;5.30;;
74080;SDS011;62438;52.228;6.864;2022-09-21T02:21:30;14.70;;;4.88;;
74080;SDS011;62438;52.228;6.864;2022-09-21T02:23:42;13.27;;;5.07;;
74080;SDS011;62438;52.228;6.864;2022-09-21T02:31:04;13.43;;;5.57;;
74080;SDS011;62438;52.228;6.864;2022-09-21T02:33:15;12.15;;;4.75;;
74080;SDS011;62438;52.228;6.864;2022-09-21T02:37:55;9.52;;;4.40;;
74080;SDS011;62438;52.228;6.864;2022-09-21T02:42:27;13.30;;;4.35;;
74080;SDS011;62438;52.228;6.864;2022-09-21T02:44:39;11.48;;;5.25;;
74080;SDS011;62438;52.228;6.864;2022-09-21T02:46:52;14.55;;;5.32;;
74080;SDS011;62438;52.228;6.864;2022-09-21T02:49:02;13.63;;;6.10;;
74080;SDS011;62438;52.228;6.864;2022-09-21T02:51:09;11.43;;;5.43;;
74080;SDS011;62438;52.228;6.864;2022-09-21T02:53:14;12.32;;;5.30;;
74080;SDS011;62438;52.228;6.864;2022-09-21T02:55:21;15.13;;;5.85;;
74080;SDS011;62438;52.228;6.864;2022-09-21T02:57:22;15.85;;;5.68;;
74080;SDS011;62438;52.228;6.864;2022-09-21T02:59:25;14.75;;;5.88;;
74080;SDS011;62438;52.228;6.864;2022-09-21T03:01:26;12.70;;;5.65;;
74080;SDS011;62438;52.228;6.864;2022-09-21T03:03:28;15.95;;;6.30;;
74080;SDS011;62438;52.228;6.864;2022-09-21T03:05:29;12.25;;;5.90;;
74080;SDS011;62438;52.228;6.864;2022-09-21T03:07:29;14.68;;;6.00;;
74080;SDS011;62438;52.228;6.864;2022-09-21T03:09:29;19.92;;;6.75;;
74080;SDS011;62438;52.228;6.864;2022-09-21T03:11:30;11.55;;;6.15;;
74080;SDS011;62438;52.228;6.864;2022-09-21T03:13:30;12.30;;;5.95;;
74080;SDS011;62438;52.228;6.864;2022-09-21T03:15:31;12.65;;;5.90;;
74080;SDS011;62438;52.228;6.864;2022-09-21T03:17:31;14.05;;;6.03;;
74080;SDS011;62438;52.228;6.864;2022-09-21T03:19:31;11.93;;;5.50;;
74080;SDS011;62438;52.228;6.864;2022-09-21T03:21:32;11.38;;;5.43;;
74080;SDS011;62438;52.228;6.864;2022-09-21T03:23:33;12.05;;;5.32;;
74080;SDS011;62438;52.228;6.864;2022-09-21T03:25:33;12.75;;;5.57;;
74080;SDS011;62438;52.228;6.864;2022-09-21T03:27:34;17.75;;;5.82;;
74080;SDS011;62438;52.228;6.864;2022-09-21T03:29:38;16.20;;;5.55;;
74080;SDS011;62438;52.228;6.864;2022-09-21T03:31:38;12.00;;;5.43;;
74080;SDS011;62438;52.228;6.864;2022-09-21T03:33:38;12.98;;;5.95;;
74080;SDS011;62438;52.228;6.864;2022-09-21T03:35:39;14.18;;;5.20;;
74080;SDS011;62438;52.228;6.864;2022-09-21T03:37:39;11.18;;;5.32;;
74080;SDS011;62438;52.228;6.864;2022-09-21T03:39:40;14.85;;;5.30;;
74080;SDS011;62438;52.228;6.864;2022-09-21T03:41:40;11.63;;;4.90;;
74080;SDS011;62438;52.228;6.864;2022-09-21T03:43:41;12.75;;;5.13;;
74080;SDS011;62438;52.228;6.864;2022-09-21T03:45:41;12.23;;;6.28;;
74080;SDS011;62438;52.228;6.864;2022-09-21T03:47:42;12.82;;;5.28;;
74080;SDS011;62438;52.228;6.864;2022-09-21T03:49:43;15.38;;;5.05;;
74080;SDS011;62438;52.228;6.864;2022-09-21T03:51:43;13.07;;;4.85;;
74080;SDS011;62438;52.228;6.864;2022-09-21T03:53:44;10.82;;;4.80;;
74080;SDS011;62438;52.228;6.864;2022-09-21T03:55:44;11.75;;;4.60;;
74080;SDS011;62438;52.228;6.864;2022-09-21T03:57:45;14.73;;;5.43;;
74080;SDS011;62438;52.228;6.864;2022-09-21T03:59:46;10.52;;;5.03;;
74080;SDS011;62438;52.228;6.864;2022-09-21T04:01:46;14.32;;;5.18;;
74080;SDS011;62438;52.228;6.864;2022-09-21T04:03:46;13.15;;;5.93;;
74080;SDS011;62438;52.228;6.864;2022-09-21T04:05:47;14.15;;;5.30;;
74080;SDS011;62438;52.228;6.864;2022-09-21T04:07:48;12.13;;;4.95;;
74080;SDS011;62438;52.228;6.864;2022-09-21T04:09:49;11.20;;;5.13;;
74080;SDS011;62438;52.228;6.864;2022-09-21T04:11:49;12.48;;;6.32;;
74080;SDS011;62438;52.228;6.864;2022-09-21T04:13:51;9.98;;;4.88;;
74080;SDS011;62438;52.228;6.864;2022-09-21T04:15:55;10.55;;;5.13;;
74080;SDS011;62438;52.228;6.864;2022-09-21T04:17:56;15.40;;;5.35;;
74080;SDS011;62438;52.228;6.864;2022-09-21T04:19:56;13.52;;;5.47;;
74080;SDS011;62438;52.228;6.864;2022-09-21T04:21:57;11.65;;;4.72;;
74080;SDS011;62438;52.228;6.864;2022-09-21T04:23:57;11.75;;;5.10;;
74080;SDS011;62438;52.228;6.864;2022-09-21T04:25:58;11.73;;;5.18;;
74080;SDS011;62438;52.228;6.864;2022-09-21T04:27:58;10.70;;;4.80;;
74080;SDS011;62438;52.228;6.864;2022-09-21T04:29:59;13.07;;;4.78;;
74080;SDS011;62438;52.228;6.864;2022-09-21T04:31:59;16.85;;;6.07;;
74080;SDS011;62438;52.228;6.864;2022-09-21T04:34:00;10.38;;;5.13;;
74080;SDS011;62438;52.228;6.864;2022-09-21T04:36:00;11.95;;;5.25;;
74080;SDS011;62438;52.228;6.864;2022-09-21T04:38:01;13.57;;;4.40;;
74080;SDS011;62438;52.228;6.864;2022-09-21T04:40:02;11.27;;;4.70;;
74080;SDS011;62438;52.228;6.864;2022-09-21T04:42:04;12.77;;;5.05;;
74080;SDS011;62438;52.228;6.864;2022-09-21T04:44:05;17.58;;;4.80;;
74080;SDS011;62438;52.228;6.864;2022-09-21T04:46:09;15.27;;;5.32;;
74080;SDS011;62438;52.228;6.864;2022-09-21T04:48:11;12.60;;;5.00;;
74080;SDS011;62438;52.228;6.864;2022-09-21T04:50:12;13.05;;;4.68;;
74080;SDS011;62438;52.228;6.864;2022-09-21T04:52:12;11.45;;;4.88;;
74080;SDS011;62438;52.228;6.864;2022-09-21T04:54:13;11.55;;;4.80;;
74080;SDS011;62438;52.228;6.864;2022-09-21T04:56:14;10.88;;;4.88;;
74080;SDS011;62438;52.228;6.864;2022-09-21T04:58:15;12.88;;;5.00;;
74080;SDS011;62438;52.228;6.864;2022-09-21T05:00:15;11.70;;;5.22;;
74080;SDS011;62438;52.228;6.864;2022-09-21T05:06:19;11.65;;;4.63;;
74080;SDS011;62438;52.228;6.864;2022-09-21T05:08:19;14.23;;;4.97;;
74080;SDS011;62438;52.228;6.864;2022-09-21T05:10:39;11.95;;;5.90;;
74080;SDS011;62438;52.228;6.864;2022-09-21T05:12:40;14.25;;;6.18;;
74080;SDS011;62438;52.228;6.864;2022-09-21T05:14:42;14.65;;;5.60;;
74080;SDS011;62438;52.228;6.864;2022-09-21T05:16:43;12.88;;;5.93;;
74080;SDS011;62438;52.228;6.864;2022-09-21T05:22:58;11.57;;;5.00;;
74080;SDS011;62438;52.228;6.864;2022-09-21T05:25:00;12.07;;;5.20;;
74080;SDS011;62438;52.228;6.864;2022-09-21T05:27:01;13.15;;;5.85;;
74080;SDS011;62438;52.228;6.864;2022-09-21T05:29:01;12.48;;;5.20;;
74080;SDS011;62438;52.228;6.864;2022-09-21T05:31:03;14.75;;;6.07;;
74080;SDS011;62438;52.228;6.864;2022-09-21T05:33:17;13.85;;;5.47;;
74080;SDS011;62438;52.228;6.864;2022-09-21T05:39:45;28.33;;;12.05;;
74080;SDS011;62438;52.228;6.864;2022-09-21T05:41:46;28.42;;;12.18;;
74080;SDS011;62438;52.228;6.864;2022-09-21T05:43:46;27.50;;;11.75;;
74080;SDS011;62438;52.228;6.864;2022-09-21T05:45:51;23.65;;;11.50;;
74080;SDS011;62438;52.228;6.864;2022-09-21T05:48:12;24.70;;;10.75;;
74080;SDS011;62438;52.228;6.864;2022-09-21T05:55:11;18.27;;;8.65;;
74080;SDS011;62438;52.228;6.864;2022-09-21T05:57:52;19.63;;;8.82;;
74080;SDS011;62438;52.228;6.864;2022-09-21T06:00:11;16.90;;;5.80;;
74080;SDS011;62438;52.228;6.864;2022-09-21T06:04:51;15.52;;;6.32;;
74080;SDS011;62438;52.228;6.864;2022-09-21T06:06:55;15.40;;;6.90;;
74080;SDS011;62438;52.228;6.864;2022-09-21T06:08:55;14.98;;;6.03;;
74080;SDS011;62438;52.228;6.864;2022-09-21T06:10:55;16.67;;;6.45;;
74080;SDS011;62438;52.228;6.864;2022-09-21T06:12:56;16.60;;;7.07;;
74080;SDS011;62438;52.228;6.864;2022-09-21T06:14:56;16.25;;;6.32;;
74080;SDS011;62438;52.228;6.864;2022-09-21T06:16:57;18.20;;;6.85;;
74080;SDS011;62438;52.228;6.864;2022-09-21T06:18:57;16.88;;;6.28;;
74080;SDS011;62438;52.228;6.864;2022-09-21T06:20:58;16.08;;;6.22;;
74080;SDS011;62438;52.228;6.864;2022-09-21T06:22:59;15.50;;;6.00;;
74080;SDS011;62438;52.228;6.864;2022-09-21T06:25:00;16.00;;;5.78;;
74080;SDS011;62438;52.228;6.864;2022-09-21T06:27:01;18.58;;;6.32;;
74080;SDS011;62438;52.228;6.864;2022-09-21T06:29:01;20.23;;;6.28;;
74080;SDS011;62438;52.228;6.864;2022-09-21T06:31:02;16.90;;;5.75;;
74080;SDS011;62438;52.228;6.864;2022-09-21T06:33:03;19.30;;;6.18;;
74080;SDS011;62438;52.228;6.864;2022-09-21T06:35:05;16.05;;;6.45;;
74080;SDS011;62438;52.228;6.864;2022-09-21T06:37:06;18.98;;;6.55;;
74080;SDS011;62438;52.228;6.864;2022-09-21T06:39:06;15.85;;;7.10;;
74080;SDS011;62438;52.228;6.864;2022-09-21T06:41:07;19.95;;;7.00;;
74080;SDS011;62438;52.228;6.864;2022-09-21T06:43:07;17.85;;;7.43;;
74080;SDS011;62438;52.228;6.864;2022-09-21T06:45:08;24.10;;;7.85;;
74080;SDS011;62438;52.228;6.864;2022-09-21T06:47:08;22.92;;;7.80;;
74080;SDS011;62438;52.228;6.864;2022-09-21T06:49:09;23.90;;;8.63;;
74080;SDS011;62438;52.228;6.864;2022-09-21T06:51:09;27.25;;;11.02;;
74080;SDS011;62438;52.228;6.864;2022-09-21T06:53:10;30.83;;;10.55;;
74080;SDS011;62438;52.228;6.864;2022-09-21T06:55:10;42.63;;;13.48;;
74080;SDS011;62438;52.228;6.864;2022-09-21T06:57:10;43.35;;;14.73;;
74080;SDS011;62438;52.228;6.864;2022-09-21T06:59:11;45.83;;;15.73;;
74080;SDS011;62438;52.228;6.864;2022-09-21T07:01:12;59.60;;;18.30;;
74080;SDS011;62438;52.228;6.864;2022-09-21T07:03:14;66.55;;;18.70;;
74080;SDS011;62438;52.228;6.864;2022-09-21T07:05:14;58.75;;;19.65;;
74080;SDS011;62438;52.228;6.864;2022-09-21T07:07:15;79.28;;;20.88;;
74080;SDS011;62438;52.228;6.864;2022-09-21T07:09:16;64.20;;;20.10;;
74080;SDS011;62438;52.228;6.864;2022-09-21T07:11:16;56.30;;;16.45;;
74080;SDS011;62438;52.228;6.864;2022-09-21T07:13:17;55.53;;;17.17;;
74080;SDS011;62438;52.228;6.864;2022-09-21T07:15:18;51.30;;;16.98;;
74080;SDS011;62438;52.228;6.864;2022-09-21T07:17:19;42.88;;;14.55;;
74080;SDS011;62438;52.228;6.864;2022-09-21T07:19:20;47.53;;;15.23;;
74080;SDS011;62438;52.228;6.864;2022-09-21T07:21:21;45.25;;;14.38;;
74080;SDS011;62438;52.228;6.864;2022-09-21T07:23:21;39.35;;;13.32;;
74080;SDS011;62438;52.228;6.864;2022-09-21T07:25:22;36.33;;;12.63;;
74080;SDS011;62438;52.228;6.864;2022-09-21T07:27:23;35.95;;;12.18;;
74080;SDS011;62438;52.228;6.864;2022-09-21T07:29:24;37.17;;;12.20;;
74080;SDS011;62438;52.228;6.864;2022-09-21T07:31:24;34.63;;;13.10;;
74080;SDS011;62438;52.228;6.864;2022-09-21T07:33:25;43.55;;;13.80;;
74080;SDS011;62438;52.228;6.864;2022-09-21T07:35:25;38.25;;;13.80;;
74080;SDS011;62438;52.228;6.864;2022-09-21T07:37:26;35.92;;;13.65;;
74080;SDS011;62438;52.228;6.864;2022-09-21T07:39:27;35.35;;;13.25;;
74080;SDS011;62438;52.228;6.864;2022-09-21T07:41:27;27.25;;;11.68;;
74080;SDS011;62438;52.228;6.864;2022-09-21T07:43:28;26.13;;;11.13;;
74080;SDS011;62438;52.228;6.864;2022-09-21T07:45:29;28.02;;;11.23;;
74080;SDS011;62438;52.228;6.864;2022-09-21T07:47:30;24.02;;;10.30;;
74080;SDS011;62438;52.228;6.864;2022-09-21T07:49:30;22.35;;;10.85;;
74080;SDS011;62438;52.228;6.864;2022-09-21T07:51:31;24.50;;;10.13;;
74080;SDS011;62438;52.228;6.864;2022-09-21T07:53:32;23.83;;;8.90;;
74080;SDS011;62438;52.228;6.864;2022-09-21T07:55:33;21.02;;;8.65;;
74080;SDS011;62438;52.228;6.864;2022-09-21T07:57:34;21.60;;;7.90;;
74080;SDS011;62438;52.228;6.864;2022-09-21T07:59:53;22.33;;;7.80;;
74080;SDS011;62438;52.228;6.864;2022-09-21T08:01:57;18.48;;;8.02;;
74080;SDS011;62438;52.228;6.864;2022-09-21T08:03:58;18.92;;;7.88;;
74080;SDS011;62438;52.228;6.864;2022-09-21T08:05:59;21.73;;;8.00;;
74080;SDS011;62438;52.228;6.864;2022-09-21T08:07:59;15.85;;;7.28;;
74080;SDS011;62438;52.228;6.864;2022-09-21T08:09:59;19.17;;;7.40;;
74080;SDS011;62438;52.228;6.864;2022-09-21T08:12:00;20.05;;;7.15;;
74080;SDS011;62438;52.228;6.864;2022-09-21T08:14:01;19.73;;;6.55;;
74080;SDS011;62438;52.228;6.864;2022-09-21T08:16:02;21.45;;;6.80;;
74080;SDS011;62438;52.228;6.864;2022-09-21T08:18:03;20.35;;;6.32;;
74080;SDS011;62438;52.228;6.864;2022-09-21T08:20:06;14.70;;;5.55;;
74080;SDS011;62438;52.228;6.864;2022-09-21T08:22:06;14.65;;;4.90;;
74080;SDS011;62438;52.228;6.864;2022-09-21T08:24:07;11.77;;;4.30;;
74080;SDS011;62438;52.228;6.864;2022-09-21T08:26:11;11.55;;;4.65;;
74080;SDS011;62438;52.228;6.864;2022-09-21T08:28:17;13.05;;;4.13;;
74080;SDS011;62438;52.228;6.864;2022-09-21T08:30:17;10.13;;;3.63;;
74080;SDS011;62438;52.228;6.864;2022-09-21T08:32:18;13.73;;;4.03;;
74080;SDS011;62438;52.228;6.864;2022-09-21T08:34:18;11.77;;;4.20;;
74080;SDS011;62438;52.228;6.864;2022-09-21T08:36:19;11.90;;;3.80;;
74080;SDS011;62438;52.228;6.864;2022-09-21T08:38:20;15.00;;;4.35;;
74080;SDS011;62438;52.228;6.864;2022-09-21T08:40:21;14.43;;;4.60;;
74080;SDS011;62438;52.228;6.864;2022-09-21T08:44:45;10.88;;;3.83;;
74080;SDS011;62438;52.228;6.864;2022-09-21T08:47:01;13.57;;;3.47;;
74080;SDS011;62438;52.228;6.864;2022-09-21T08:49:07;13.10;;;3.70;;
74080;SDS011;62438;52.228;6.864;2022-09-21T08:51:14;11.63;;;3.15;;
74080;SDS011;62438;52.228;6.864;2022-09-21T08:53:25;11.82;;;2.92;;
74080;SDS011;62438;52.228;6.864;2022-09-21T08:55:32;10.45;;;2.58;;
74080;SDS011;62438;52.228;6.864;2022-09-21T08:57:32;8.90;;;2.20;;
74080;SDS011;62438;52.228;6.864;2022-09-21T08:59:33;7.68;;;2.70;;
74080;SDS011;62438;52.228;6.864;2022-09-21T09:03:58;12.80;;;2.50;;
74080;SDS011;62438;52.228;6.864;2022-09-21T09:06:33;11.18;;;2.88;;
74080;SDS011;62438;52.228;6.864;2022-09-21T09:21:58;8.07;;;2.33;;
74080;SDS011;62438;52.228;6.864;2022-09-21T09:27:08;12.27;;;2.28;;
74080;SDS011;62438;52.228;6.864;2022-09-21T09:28:57;8.00;;;2.22;;
74080;SDS011;62438;52.228;6.864;2022-09-21T09:36:01;8.27;;;2.65;;
74080;SDS011;62438;52.228;6.864;2022-09-21T09:38:14;10.35;;;2.20;;
74080;SDS011;62438;52.228;6.864;2022-09-21T09:43:04;8.68;;;1.90;;
74080;SDS011;62438;52.228;6.864;2022-09-21T09:51:38;7.38;;;1.65;;
74080;SDS011;62438;52.228;6.864;2022-09-21T09:53:39;10.32;;;2.10;;
74080;SDS011;62438;52.228;6.864;2022-09-21T09:55:41;7.10;;;2.15;;
74080;SDS011;62438;52.228;6.864;2022-09-21T09:57:45;6.72;;;1.98;;
74080;SDS011;62438;52.228;6.864;2022-09-21T09:59:47;8.20;;;2.00;;
74080;SDS011;62438;52.228;6.864;2022-09-21T10:02:03;11.55;;;2.50;;
74080;SDS011;62438;52.228;6.864;2022-09-21T10:04:07;8.93;;;1.60;;
74080;SDS011;62438;52.228;6.864;2022-09-21T10:06:13;6.90;;;1.48;;
74080;SDS011;62438;52.228;6.864;2022-09-21T10:08:37;9.13;;;2.00;;
74080;SDS011;62438;52.228;6.864;2022-09-21T10:10:41;7.93;;;1.48;;
74080;SDS011;62438;52.228;6.864;2022-09-21T10:12:43;9.63;;;2.75;;
74080;SDS011;62438;52.228;6.864;2022-09-21T10:14:49;10.63;;;1.50;;
74080;SDS011;62438;52.228;6.864;2022-09-21T10:16:52;8.88;;;1.50;;
74080;SDS011;62438;52.228;6.864;2022-09-21T10:18:55;7.28;;;1.58;;
74080;SDS011;62438;52.228;6.864;2022-09-21T10:21:02;10.02;;;1.30;;
74080;SDS011;62438;52.228;6.864;2022-09-21T10:23:08;7.25;;;1.10;;
74080;SDS011;62438;52.228;6.864;2022-09-21T10:25:15;6.72;;;1.38;;
74080;SDS011;62438;52.228;6.864;2022-09-21T10:27:24;5.53;;;1.10;;
74080;SDS011;62438;52.228;6.864;2022-09-21T10:31:31;6.22;;;1.30;;
74080;SDS011;62438;52.228;6.864;2022-09-21T10:33:31;6.43;;;1.25;;
74080;SDS011;62438;52.228;6.864;2022-09-21T10:35:32;10.25;;;1.02;;
74080;SDS011;62438;52.228;6.864;2022-09-21T10:37:49;7.20;;;1.23;;
74080;SDS011;62438;52.228;6.864;2022-09-21T10:42:18;6.10;;;1.02;;
74080;SDS011;62438;52.228;6.864;2022-09-21T10:44:20;7.30;;;1.13;;
74080;SDS011;62438;52.228;6.864;2022-09-21T10:46:31;7.75;;;1.20;;
74080;SDS011;62438;52.228;6.864;2022-09-21T10:48:33;6.60;;;1.10;;
74080;SDS011;62438;52.228;6.864;2022-09-21T10:52:37;7.10;;;1.08;;
74080;SDS011;62438;52.228;6.864;2022-09-21T10:54:41;7.80;;;1.10;;
74080;SDS011;62438;52.228;6.864;2022-09-21T10:56:51;5.00;;;0.88;;
74080;SDS011;62438;52.228;6.864;2022-09-21T10:59:09;10.48;;;1.50;;
74080;SDS011;62438;52.228;6.864;2022-09-21T11:01:14;5.65;;;1.08;;
74080;SDS011;62438;52.228;6.864;2022-09-21T11:05:48;6.43;;;1.10;;
74080;SDS011;62438;52.228;6.864;2022-09-21T11:14:52;3.83;;;1.00;;
74080;SDS011;62438;52.228;6.864;2022-09-21T11:17:15;5.47;;;1.40;;
74080;SDS011;62438;52.228;6.864;2022-09-21T11:24:11;2.78;;;0.60;;
74080;SDS011;62438;52.228;6.864;2022-09-21T11:28:49;10.07;;;0.80;;
74080;SDS011;62438;52.228;6.864;2022-09-21T11:44:44;3.78;;;0.63;;
74080;SDS011;62438;52.228;6.864;2022-09-21T11:46:55;4.38;;;0.90;;
74080;SDS011;62438;52.228;6.864;2022-09-21T11:49:23;4.88;;;0.80;;
74080;SDS011;62438;52.228;6.864;2022-09-21T11:56:32;7.22;;;1.08;;
74080;SDS011;62438;52.228;6.864;2022-09-21T12:01:09;6.63;;;1.10;;
74080;SDS011;62438;52.228;6.864;2022-09-21T12:03:39;6.72;;;0.93;;
74080;SDS011;62438;52.228;6.864;2022-09-21T12:12:44;4.65;;;0.82;;
74080;SDS011;62438;52.228;6.864;2022-09-21T12:15:27;4.63;;;0.73;;
74080;SDS011;62438;52.228;6.864;2022-09-21T12:20:22;7.55;;;0.90;;
74080;SDS011;62438;52.228;6.864;2022-09-21T12:24:34;10.20;;;1.27;;
74080;SDS011;62438;52.228;6.864;2022-09-21T12:26:57;7.40;;;1.35;;
74080;SDS011;62438;52.228;6.864;2022-09-21T12:29:10;5.25;;;0.80;;
74080;SDS011;62438;52.228;6.864;2022-09-21T12:31:25;7.80;;;0.90;;
74080;SDS011;62438;52.228;6.864;2022-09-21T12:33:35;4.85;;;0.77;;
74080;SDS011;62438;52.228;6.864;2022-09-21T12:35:43;4.63;;;0.70;;
74080;SDS011;62438;52.228;6.864;2022-09-21T12:37:49;4.32;;;0.88;;
74080;SDS011;62438;52.228;6.864;2022-09-21T12:42:37;3.95;;;0.88;;
74080;SDS011;62438;52.228;6.864;2022-09-21T12:45:27;4.22;;;0.85;;
74080;SDS011;62438;52.228;6.864;2022-09-21T12:47:08;6.05;;;1.10;;
74080;SDS011;62438;52.228;6.864;2022-09-21T12:49:19;4.57;;;0.90;;
74080;SDS011;62438;52.228;6.864;2022-09-21T12:51:30;5.03;;;0.73;;
74080;SDS011;62438;52.228;6.864;2022-09-21T12:53:34;5.30;;;0.98;;
74080;SDS011;62438;52.228;6.864;2022-09-21T12:55:39;3.50;;;0.90;;
74080;SDS011;62438;52.228;6.864;2022-09-21T12:57:51;5.25;;;1.40;;
74080;SDS011;62438;52.228;6.864;2022-09-21T13:02:42;5.53;;;0.95;;
74080;SDS011;62438;52.228;6.864;2022-09-21T13:05:10;9.52;;;1.08;;
74080;SDS011;62438;52.228;6.864;2022-09-21T13:09:56;6.28;;;1.02;;
74080;SDS011;62438;52.228;6.864;2022-09-21T13:12:00;3.50;;;0.70;;
74080;SDS011;62438;52.228;6.864;2022-09-21T13:14:09;4.97;;;1.08;;
74080;SDS011;62438;52.228;6.864;2022-09-21T13:20:35;8.98;;;1.00;;
74080;SDS011;62438;52.228;6.864;2022-09-21T13:22:38;9.13;;;1.00;;
74080;SDS011;62438;52.228;6.864;2022-09-21T13:24:39;4.03;;;1.10;;
74080;SDS011;62438;52.228;6.864;2022-09-21T13:26:42;5.88;;;1.20;;
74080;SDS011;62438;52.228;6.864;2022-09-21T13:37:55;9.68;;;1.10;;
74080;SDS011;62438;52.228;6.864;2022-09-21T13:44:42;5.65;;;0.98;;
74080;SDS011;62438;52.228;6.864;2022-09-21T13:46:46;6.00;;;1.05;;
74080;SDS011;62438;52.228;6.864;2022-09-21T13:48:53;6.18;;;1.05;;
74080;SDS011;62438;52.228;6.864;2022-09-21T13:50:56;5.35;;;0.77;;
74080;SDS011;62438;52.228;6.864;2022-09-21T13:53:01;4.35;;;0.90;;
74080;SDS011;62438;52.228;6.864;2022-09-21T13:55:04;5.38;;;1.10;;
74080;SDS011;62438;52.228;6.864;2022-09-21T13:59:33;6.45;;;1.40;;
74080;SDS011;62438;52.228;6.864;2022-09-21T14:01:35;6.18;;;0.88;;
74080;SDS011;62438;52.228;6.864;2022-09-21T14:03:36;9.63;;;1.20;;
74080;SDS011;62438;52.228;6.864;2022-09-21T14:05:44;4.72;;;0.90;;
74080;SDS011;62438;52.228;6.864;2022-09-21T14:07:46;3.65;;;1.00;;
74080;SDS011;62438;52.228;6.864;2022-09-21T14:10:02;7.43;;;0.80;;
74080;SDS011;62438;52.228;6.864;2022-09-21T14:12:07;4.57;;;0.93;;
74080;SDS011;62438;52.228;6.864;2022-09-21T14:14:33;7.88;;;1.00;;
74080;SDS011;62438;52.228;6.864;2022-09-21T14:18:44;4.47;;;0.93;;
74080;SDS011;62438;52.228;6.864;2022-09-21T14:27:32;7.38;;;1.00;;
74080;SDS011;62438;52.228;6.864;2022-09-21T14:32:01;8.32;;;0.98;;
74080;SDS011;62438;52.228;6.864;2022-09-21T14:34:04;4.47;;;0.80;;
74080;SDS011;62438;52.228;6.864;2022-09-21T14:36:13;4.82;;;0.80;;
74080;SDS011;62438;52.228;6.864;2022-09-21T14:38:21;5.60;;;0.90;;
74080;SDS011;62438;52.228;6.864;2022-09-21T14:40:30;7.47;;;1.45;;
74080;SDS011;62438;52.228;6.864;2022-09-21T14:42:35;7.30;;;0.88;;
74080;SDS011;62438;52.228;6.864;2022-09-21T14:44:38;5.90;;;0.73;;
74080;SDS011;62438;52.228;6.864;2022-09-21T15:01:13;5.60;;;1.00;;
74080;SDS011;62438;52.228;6.864;2022-09-21T15:06:34;3.78;;;0.70;;
74080;SDS011;62438;52.228;6.864;2022-09-21T15:11:52;5.30;;;0.82;;
74080;SDS011;62438;52.228;6.864;2022-09-21T15:18:14;4.72;;;0.80;;
74080;SDS011;62438;52.228;6.864;2022-09-21T15:20:20;3.97;;;0.77;;
74080;SDS011;62438;52.228;6.864;2022-09-21T15:22:24;6.13;;;0.65;;
74080;SDS011;62438;52.228;6.864;2022-09-21T15:24:30;3.30;;;0.65;;
74080;SDS011;62438;52.228;6.864;2022-09-21T15:26:33;3.55;;;0.73;;
74080;SDS011;62438;52.228;6.864;2022-09-21T15:28:43;2.80;;;0.73;;
74080;SDS011;62438;52.228;6.864;2022-09-21T15:30:50;3.55;;;0.82;;
74080;SDS011;62438;52.228;6.864;2022-09-21T15:32:55;4.78;;;0.70;;
74080;SDS011;62438;52.228;6.864;2022-09-21T15:35:05;8.05;;;0.90;;
74080;SDS011;62438;52.228;6.864;2022-09-21T15:37:15;8.75;;;0.95;;
74080;SDS011;62438;52.228;6.864;2022-09-21T15:43:44;5.97;;;0.88;;
74080;SDS011;62438;52.228;6.864;2022-09-21T15:47:57;3.58;;;0.82;;
74080;SDS011;62438;52.228;6.864;2022-09-21T15:49:57;8.15;;;1.13;;
74080;SDS011;62438;52.228;6.864;2022-09-21T15:54:17;4.85;;;1.20;;
74080;SDS011;62438;52.228;6.864;2022-09-21T15:56:31;6.13;;;0.82;;
74080;SDS011;62438;52.228;6.864;2022-09-21T15:58:40;3.67;;;0.80;;